sensor_id;sensor_type;location;lat;lon;timestamp;pressure;altitude;pressure_sealevel;temperature;humidity
6514;BME280;3290;47.716;9.070;2023-04-15T00:00:52;95985.41;;;5.91;97.28
6514;BME280;3290;47.716;9.070;2023-04-15T00:03:18;95983.44;;;5.86;98.04
6514;BME280;3290;47.716;9.070;2023-04-15T00:05:44;95981.19;;;5.90;98.05
6514;BME280;3290;47.716;9.070;2023-04-15T00:08:09;95987.25;;;5.84;98.35
6514;BME280;3290;47.716;9.070;2023-04-15T00:10:34;95979.50;;;5.71;98.21
6514;BME280;3290;47.716;9.070;2023-04-15T00:13:00;95986.72;;;5.56;100.00
6514;BME280;3290;47.716;9.070;2023-04-15T00:15:26;95980.47;;;5.83;98.92
6514;BME280;3290;47.716;9.070;2023-04-15T00:17:52;95982.31;;;5.63;99.38
6514;BME280;3290;47.716;9.070;2023-04-15T00:20:17;95979.09;;;5.67;99.48
6514;BME280;3290;47.716;9.070;2023-04-15T00:22:43;95983.38;;;5.49;99.85
6514;BME280;3290;47.716;9.070;2023-04-15T00:25:08;95973.53;;;5.64;99.98
6514;BME280;3290;47.716;9.070;2023-04-15T00:27:34;95971.41;;;5.92;98.20
6514;BME280;3290;47.716;9.070;2023-04-15T00:29:59;95974.28;;;5.77;98.69
6514;BME280;3290;47.716;9.070;2023-04-15T00:32:24;95976.03;;;5.33;100.00
6514;BME280;3290;47.716;9.070;2023-04-15T00:34:50;95984.00;;;5.38;100.00
6514;BME280;3290;47.716;9.070;2023-04-15T00:37:15;95978.44;;;5.35;100.00
6514;BME280;3290;47.716;9.070;2023-04-15T00:39:41;95982.47;;;5.24;100.00
6514;BME280;3290;47.716;9.070;2023-04-15T00:42:06;95982.06;;;5.27;100.00
6514;BME280;3290;47.716;9.070;2023-04-15T00:44:32;95978.03;;;5.31;100.00
6514;BME280;3290;47.716;9.070;2023-04-15T00:46:59;95987.09;;;5.10;100.00
6514;BME280;3290;47.716;9.070;2023-04-15T00:49:25;95982.09;;;5.08;100.00
6514;BME280;3290;47.716;9.070;2023-04-15T00:51:51;95984.06;;;5.13;100.00
6514;BME280;3290;47.716;9.070;2023-04-15T00:54:16;95977.91;;;5.07;100.00
6514;BME280;3290;47.716;9.070;2023-04-15T00:56:42;95978.53;;;4.96;100.00
6514;BME280;3290;47.716;9.070;2023-04-15T00:59:07;95984.13;;;5.06;100.00
6514;BME280;3290;47.716;9.070;2023-04-15T01:01:36;95977.69;;;5.21;100.00
6514;BME280;3290;47.716;9.070;2023-04-15T01:04:03;95985.25;;;5.29;100.00
6514;BME280;3290;47.716;9.070;2023-04-15T01:06:31;95981.81;;;5.42;100.00
6514;BME280;3290;47.716;9.070;2023-04-15T01:08:58;95991.41;;;5.41;100.00
6514;BME280;3290;47.716;9.070;2023-04-15T01:11:24;95991.84;;;5.25;100.00
6514;BME280;3290;47.716;9.070;2023-04-15T01:13:51;95996.84;;;5.14;100.00
6514;BME280;3290;47.716;9.070;2023-04-15T01:16:17;95995.28;;;5.07;100.00
6514;BME280;3290;47.716;9.070;2023-04-15T01:18:43;95992.53;;;4.89;100.00
6514;BME280;3290;47.716;9.070;2023-04-15T01:21:08;95990.13;;;4.94;100.00
6514;BME280;3290;47.716;9.070;2023-04-15T01:23:35;95990.34;;;4.73;100.00
6514;BME280;3290;47.716;9.070;2023-04-15T01:26:03;95995.72;;;4.97;100.00
6514;BME280;3290;47.716;9.070;2023-04-15T01:28:29;96000.88;;;5.17;100.00
6514;BME280;3290;47.716;9.070;2023-04-15T01:31:05;95998.84;;;5.25;100.00
6514;BME280;3290;47.716;9.070;2023-04-15T01:33:31;95996.06;;;5.14;100.00
6514;BME280;3290;47.716;9.070;2023-04-15T01:35:57;95991.34;;;4.85;100.00
6514;BME280;3290;47.716;9.070;2023-04-15T01:38:22;95993.31;;;5.02;100.00
6514;BME280;3290;47.716;9.070;2023-04-15T01:40:48;95996.91;;;5.01;100.00
6514;BME280;3290;47.716;9.070;2023-04-15T01:43:13;95990.91;;;4.94;100.00
6514;BME280;3290;47.716;9.070;2023-04-15T01:45:39;95997.75;;;4.76;100.00
6514;BME280;3290;47.716;9.070;2023-04-15T01:48:05;95986.56;;;4.69;100.00
6514;BME280;3290;47.716;9.070;2023-04-15T01:50:31;95993.34;;;4.77;100.00
6514;BME280;3290;47.716;9.070;2023-04-15T01:52:56;95986.97;;;4.66;100.00
6514;BME280;3290;47.716;9.070;2023-04-15T01:55:22;95991.94;;;4.74;100.00
6514;BME280;3290;47.716;9.070;2023-04-15T01:57:47;95990.13;;;4.87;100.00
6514;BME280;3290;47.716;9.070;2023-04-15T02:00:13;96000.53;;;4.68;100.00
6514;BME280;3290;47.716;9.070;2023-04-15T02:02:39;95999.31;;;4.71;100.00
6514;BME280;3290;47.716;9.070;2023-04-15T02:05:04;95997.72;;;4.63;100.00
6514;BME280;3290;47.716;9.070;2023-04-15T02:07:30;96004.13;;;4.74;100.00
6514;BME280;3290;47.716;9.070;2023-04-15T02:09:56;95995.94;;;4.83;100.00
6514;BME280;3290;47.716;9.070;2023-04-15T02:12:22;95997.31;;;4.79;100.00
6514;BME280;3290;47.716;9.070;2023-04-15T02:14:47;95999.53;;;4.82;100.00
6514;BME280;3290;47.716;9.070;2023-04-15T02:17:12;96003.75;;;4.64;100.00
6514;BME280;3290;47.716;9.070;2023-04-15T02:19:38;95998.56;;;4.64;100.00
6514;BME280;3290;47.716;9.070;2023-04-15T02:22:04;96004.31;;;4.72;100.00
6514;BME280;3290;47.716;9.070;2023-04-15T02:24:32;95998.53;;;4.70;100.00
6514;BME280;3290;47.716;9.070;2023-04-15T02:26:57;96004.91;;;4.61;100.00
6514;BME280;3290;47.716;9.070;2023-04-15T02:29:22;96005.31;;;4.45;100.00
6514;BME280;3290;47.716;9.070;2023-04-15T02:31:48;96003.72;;;4.38;100.00
6514;BME280;3290;47.716;9.070;2023-04-15T02:34:14;96004.13;;;4.35;100.00
6514;BME280;3290;47.716;9.070;2023-04-15T02:36:39;95994.16;;;4.38;100.00
6514;BME280;3290;47.716;9.070;2023-04-15T02:39:05;95997.75;;;4.50;100.00
6514;BME280;3290;47.716;9.070;2023-04-15T02:41:30;95994.53;;;4.36;100.00
6514;BME280;3290;47.716;9.070;2023-04-15T02:43:56;95994.13;;;4.32;100.00
6514;BME280;3290;47.716;9.070;2023-04-15T02:46:21;96000.75;;;4.41;100.00
6514;BME280;3290;47.716;9.070;2023-04-15T02:48:47;95995.75;;;4.33;100.00
6514;BME280;3290;47.716;9.070;2023-04-15T02:51:20;96000.91;;;4.27;100.00
6514;BME280;3290;47.716;9.070;2023-04-15T02:53:47;96001.34;;;4.24;100.00
6514;BME280;3290;47.716;9.070;2023-04-15T02:56:13;95997.34;;;4.15;100.00
6514;BME280;3290;47.716;9.070;2023-04-15T02:58:39;96000.91;;;4.27;100.00
6514;BME280;3290;47.716;9.070;2023-04-15T03:01:05;96002.91;;;4.25;100.00
6514;BME280;3290;47.716;9.070;2023-04-15T03:03:33;96002.53;;;4.40;100.00
6514;BME280;3290;47.716;9.070;2023-04-15T03:05:58;96006.72;;;4.41;100.00
6514;BME280;3290;47.716;9.070;2023-04-15T03:08:24;96008.09;;;4.44;100.00
6514;BME280;3290;47.716;9.070;2023-04-15T03:10:49;96012.88;;;4.28;100.00
6514;BME280;3290;47.716;9.070;2023-04-15T03:13:16;96016.88;;;4.37;100.00
6514;BME280;3290;47.716;9.070;2023-04-15T03:15:42;96016.28;;;4.28;100.00
6514;BME280;3290;47.716;9.070;2023-04-15T03:18:07;96008.84;;;4.06;100.00
6514;BME280;3290;47.716;9.070;2023-04-15T03:20:33;96010.03;;;3.97;100.00
6514;BME280;3290;47.716;9.070;2023-04-15T03:23:00;96018.84;;;4.09;100.00
6514;BME280;3290;47.716;9.070;2023-04-15T03:25:25;96010.03;;;3.97;100.00
6514;BME280;3290;47.716;9.070;2023-04-15T03:27:51;96015.22;;;3.97;100.00
6514;BME280;3290;47.716;9.070;2023-04-15T03:30:16;96015.63;;;3.94;100.00
6514;BME280;3290;47.716;9.070;2023-04-15T03:32:42;96012.00;;;3.82;100.00
6514;BME280;3290;47.716;9.070;2023-04-15T03:35:07;96006.44;;;3.85;100.00
6514;BME280;3290;47.716;9.070;2023-04-15T03:37:33;96010.00;;;3.84;100.00
6514;BME280;3290;47.716;9.070;2023-04-15T03:39:59;96005.03;;;3.76;100.00
6514;BME280;3290;47.716;9.070;2023-04-15T03:42:24;96007.19;;;3.79;100.00
6514;BME280;3290;47.716;9.070;2023-04-15T03:44:50;96006.03;;;3.82;100.00
6514;BME280;3290;47.716;9.070;2023-04-15T03:47:15;96004.81;;;3.78;100.00
6514;BME280;3290;47.716;9.070;2023-04-15T03:49:40;96006.81;;;3.82;100.00
6514;BME280;3290;47.716;9.070;2023-04-15T03:52:06;96008.03;;;3.86;100.00
6514;BME280;3290;47.716;9.070;2023-04-15T03:54:31;96002.66;;;3.88;100.00
6514;BME280;3290;47.716;9.070;2023-04-15T03:56:56;96009.03;;;3.85;100.00
6514;BME280;3290;47.716;9.070;2023-04-15T03:59:22;96003.41;;;3.75;100.00
6514;BME280;3290;47.716;9.070;2023-04-15T04:01:48;95998.44;;;3.80;100.00
6514;BME280;3290;47.716;9.070;2023-04-15T04:04:13;96009.34;;;3.63;100.00
6514;BME280;3290;47.716;9.070;2023-04-15T04:06:38;96002.78;;;3.67;100.00
6514;BME280;3290;47.716;9.070;2023-04-15T04:09:04;96008.81;;;3.34;100.00
6514;BME280;3290;47.716;9.070;2023-04-15T04:11:29;96010.75;;;3.65;100.00
6514;BME280;3290;47.716;9.070;2023-04-15T04:13:55;96013.22;;;3.93;100.00
6514;BME280;3290;47.716;9.070;2023-04-15T04:16:21;96015.03;;;4.05;100.00
6514;BME280;3290;47.716;9.070;2023-04-15T04:18:46;96018.06;;;4.21;100.00
6514;BME280;3290;47.716;9.070;2023-04-15T04:21:11;96017.97;;;3.83;100.00
6514;BME280;3290;47.716;9.070;2023-04-15T04:23:37;96020.34;;;3.71;100.00
6514;BME280;3290;47.716;9.070;2023-04-15T04:26:02;96026.09;;;3.60;100.00
6514;BME280;3290;47.716;9.070;2023-04-15T04:28:28;96026.88;;;3.67;100.00
6514;BME280;3290;47.716;9.070;2023-04-15T04:30:53;96026.75;;;3.88;100.00
6514;BME280;3290;47.716;9.070;2023-04-15T04:33:18;96022.97;;;3.84;100.00
6514;BME280;3290;47.716;9.070;2023-04-15T04:35:44;96025.06;;;3.61;100.00
6514;BME280;3290;47.716;9.070;2023-04-15T04:38:09;96027.03;;;3.47;100.00
6514;BME280;3290;47.716;9.070;2023-04-15T04:40:35;96027.09;;;3.72;100.00
6514;BME280;3290;47.716;9.070;2023-04-15T04:43:00;96017.19;;;3.82;100.00
6514;BME280;3290;47.716;9.070;2023-04-15T04:45:26;96017.00;;;3.84;100.00
6514;BME280;3290;47.716;9.070;2023-04-15T04:47:51;96018.41;;;3.93;100.00
6514;BME280;3290;47.716;9.070;2023-04-15T04:50:17;96021.59;;;3.95;100.00
6514;BME280;3290;47.716;9.070;2023-04-15T04:52:42;96023.00;;;3.97;100.00
6514;BME280;3290;47.716;9.070;2023-04-15T04:55:07;96016.63;;;3.99;100.00
6514;BME280;3290;47.716;9.070;2023-04-15T04:57:33;96022.81;;;3.92;100.00
6514;BME280;3290;47.716;9.070;2023-04-15T05:00:00;96017.63;;;4.05;100.00
6514;BME280;3290;47.716;9.070;2023-04-15T05:02:26;96019.66;;;4.29;100.00
6514;BME280;3290;47.716;9.070;2023-04-15T05:04:51;96026.44;;;4.42;100.00
6514;BME280;3290;47.716;9.070;2023-04-15T05:07:18;96023.28;;;4.66;100.00
6514;BME280;3290;47.716;9.070;2023-04-15T05:09:45;96028.25;;;4.74;100.00
6514;BME280;3290;47.716;9.070;2023-04-15T05:12:10;96027.66;;;4.85;100.00
6514;BME280;3290;47.716;9.070;2023-04-15T05:14:41;96015.91;;;4.76;100.00
6514;BME280;3290;47.716;9.070;2023-04-15T05:17:07;96030.03;;;4.67;100.00
6514;BME280;3290;47.716;9.070;2023-04-15T05:19:33;96015.31;;;4.68;100.00
6514;BME280;3290;47.716;9.070;2023-04-15T05:21:59;96022.88;;;4.76;100.00
6514;BME280;3290;47.716;9.070;2023-04-15T05:24:24;96024.44;;;4.89;100.00
6514;BME280;3290;47.716;9.070;2023-04-15T05:26:49;96030.03;;;5.06;100.00
6514;BME280;3290;47.716;9.070;2023-04-15T05:29:15;96034.59;;;5.17;100.00
6514;BME280;3290;47.716;9.070;2023-04-15T05:31:40;96039.22;;;5.15;100.00
6514;BME280;3290;47.716;9.070;2023-04-15T05:34:07;96041.00;;;5.14;100.00
6514;BME280;3290;47.716;9.070;2023-04-15T05:36:32;96038.81;;;5.05;100.00
6514;BME280;3290;47.716;9.070;2023-04-15T05:38:57;96039.81;;;5.17;100.00
6514;BME280;3290;47.716;9.070;2023-04-15T05:41:23;96040.16;;;5.26;100.00
6514;BME280;3290;47.716;9.070;2023-04-15T05:43:48;96036.78;;;5.32;100.00
6514;BME280;3290;47.716;9.070;2023-04-15T05:46:14;96037.91;;;5.56;100.00
6514;BME280;3290;47.716;9.070;2023-04-15T05:48:39;96031.81;;;5.87;100.00
6514;BME280;3290;47.716;9.070;2023-04-15T05:51:05;96034.31;;;6.06;100.00
6514;BME280;3290;47.716;9.070;2023-04-15T05:53:30;96032.66;;;6.18;100.00
6514;BME280;3290;47.716;9.070;2023-04-15T05:55:56;96037.34;;;6.34;100.00
6514;BME280;3290;47.716;9.070;2023-04-15T05:58:21;96031.88;;;6.42;100.00
6514;BME280;3290;47.716;9.070;2023-04-15T06:00:47;96035.09;;;6.44;100.00
6514;BME280;3290;47.716;9.070;2023-04-15T06:03:12;96031.06;;;6.48;100.00
6514;BME280;3290;47.716;9.070;2023-04-15T06:05:38;96023.72;;;6.63;99.93
6514;BME280;3290;47.716;9.070;2023-04-15T06:08:03;96020.91;;;6.88;99.42
6514;BME280;3290;47.716;9.070;2023-04-15T06:10:28;96025.84;;;6.96;97.98
6514;BME280;3290;47.716;9.070;2023-04-15T06:12:55;96027.63;;;7.20;98.08
6514;BME280;3290;47.716;9.070;2023-04-15T06:15:20;96030.81;;;7.22;98.04
6514;BME280;3290;47.716;9.070;2023-04-15T06:17:45;96031.50;;;7.35;98.43
6514;BME280;3290;47.716;9.070;2023-04-15T06:20:11;96034.00;;;7.42;98.25
6514;BME280;3290;47.716;9.070;2023-04-15T06:22:37;96032.22;;;7.42;97.67
6514;BME280;3290;47.716;9.070;2023-04-15T06:25:05;96031.56;;;7.64;98.40
6514;BME280;3290;47.716;9.070;2023-04-15T06:27:32;96033.16;;;7.65;98.14
6514;BME280;3290;47.716;9.070;2023-04-15T06:29:57;96027.06;;;7.71;98.90
6514;BME280;3290;47.716;9.070;2023-04-15T06:32:23;96033.16;;;7.83;97.42
6514;BME280;3290;47.716;9.070;2023-04-15T06:34:48;96036.34;;;7.67;98.00
6514;BME280;3290;47.716;9.070;2023-04-15T06:37:13;96038.50;;;7.88;97.92
6514;BME280;3290;47.716;9.070;2023-04-15T06:39:41;96032.16;;;7.84;98.26
6514;BME280;3290;47.716;9.070;2023-04-15T06:42:07;96036.97;;;7.98;96.87
6514;BME280;3290;47.716;9.070;2023-04-15T06:44:33;96030.22;;;8.09;97.67
6514;BME280;3290;47.716;9.070;2023-04-15T06:46:58;96030.22;;;8.38;95.16
6514;BME280;3290;47.716;9.070;2023-04-15T06:49:24;96036.56;;;8.60;94.95
6514;BME280;3290;47.716;9.070;2023-04-15T06:51:49;96040.66;;;8.38;95.89
6514;BME280;3290;47.716;9.070;2023-04-15T06:54:15;96045.53;;;8.64;94.93
6514;BME280;3290;47.716;9.070;2023-04-15T06:56:41;96047.22;;;8.58;93.99
6514;BME280;3290;47.716;9.070;2023-04-15T06:59:07;96045.97;;;8.61;94.44
6514;BME280;3290;47.716;9.070;2023-04-15T07:01:33;96045.81;;;9.08;92.73
6514;BME280;3290;47.716;9.070;2023-04-15T07:03:58;96045.16;;;9.12;91.01
6514;BME280;3290;47.716;9.070;2023-04-15T07:06:23;96042.75;;;8.88;91.67
6514;BME280;3290;47.716;9.070;2023-04-15T07:08:50;96039.00;;;8.95;91.59
6514;BME280;3290;47.716;9.070;2023-04-15T07:11:15;96037.28;;;9.46;90.14
6514;BME280;3290;47.716;9.070;2023-04-15T07:13:41;96029.19;;;9.70;87.44
6514;BME280;3290;47.716;9.070;2023-04-15T07:16:07;96033.09;;;9.45;87.92
6514;BME280;3290;47.716;9.070;2023-04-15T07:18:33;96035.03;;;9.27;89.79
6514;BME280;3290;47.716;9.070;2023-04-15T07:20:58;96030.47;;;9.11;90.47
6514;BME280;3290;47.716;9.070;2023-04-15T07:23:24;96035.84;;;9.39;90.72
6514;BME280;3290;47.716;9.070;2023-04-15T07:25:49;96030.91;;;9.54;89.14
6514;BME280;3290;47.716;9.070;2023-04-15T07:28:14;96029.19;;;9.82;87.61
6514;BME280;3290;47.716;9.070;2023-04-15T07:30:40;96030.91;;;9.65;88.66
6514;BME280;3290;47.716;9.070;2023-04-15T07:33:05;96030.25;;;9.13;91.05
6514;BME280;3290;47.716;9.070;2023-04-15T07:35:31;96022.78;;;9.16;92.72
6514;BME280;3290;47.716;9.070;2023-04-15T07:37:57;96027.69;;;9.74;90.28
6514;BME280;3290;47.716;9.070;2023-04-15T07:40:22;96034.81;;;9.17;89.70
6514;BME280;3290;47.716;9.070;2023-04-15T07:42:48;96028.03;;;9.78;87.72
6514;BME280;3290;47.716;9.070;2023-04-15T07:45:14;96027.69;;;10.25;86.95
6514;BME280;3290;47.716;9.070;2023-04-15T07:47:40;96031.16;;;10.14;86.17
6514;BME280;3290;47.716;9.070;2023-04-15T07:50:08;96028.41;;;10.20;84.94
6514;BME280;3290;47.716;9.070;2023-04-15T07:52:34;96030.75;;;10.33;84.29
6514;BME280;3290;47.716;9.070;2023-04-15T07:55:05;96027.78;;;10.57;83.51
6514;BME280;3290;47.716;9.070;2023-04-15T07:57:32;96021.88;;;10.78;82.49
6514;BME280;3290;47.716;9.070;2023-04-15T07:59:58;96035.13;;;10.72;81.81
6514;BME280;3290;47.716;9.070;2023-04-15T08:02:24;96031.88;;;10.37;81.71
6514;BME280;3290;47.716;9.070;2023-04-15T08:04:49;96031.94;;;10.26;82.73
6514;BME280;3290;47.716;9.070;2023-04-15T08:07:15;96025.88;;;10.53;82.17
6514;BME280;3290;47.716;9.070;2023-04-15T08:09:41;96023.75;;;10.50;81.67
6514;BME280;3290;47.716;9.070;2023-04-15T08:12:06;96024.31;;;10.84;81.97
6514;BME280;3290;47.716;9.070;2023-04-15T08:14:34;96021.28;;;11.25;78.90
6514;BME280;3290;47.716;9.070;2023-04-15T08:16:59;96026.63;;;11.30;78.62
6514;BME280;3290;47.716;9.070;2023-04-15T08:19:24;96026.41;;;11.15;78.47
6514;BME280;3290;47.716;9.070;2023-04-15T08:21:50;96027.97;;;11.49;76.46
6514;BME280;3290;47.716;9.070;2023-04-15T08:24:16;96028.13;;;11.26;77.15
6514;BME280;3290;47.716;9.070;2023-04-15T08:26:41;96030.31;;;11.66;76.96
6514;BME280;3290;47.716;9.070;2023-04-15T08:29:06;96028.22;;;11.31;77.03
6514;BME280;3290;47.716;9.070;2023-04-15T08:31:32;96028.28;;;11.19;77.64
6514;BME280;3290;47.716;9.070;2023-04-15T08:33:58;96025.97;;;11.23;77.24
6514;BME280;3290;47.716;9.070;2023-04-15T08:36:23;96028.59;;;11.23;77.38
6514;BME280;3290;47.716;9.070;2023-04-15T08:38:49;96029.31;;;11.35;77.31
6514;BME280;3290;47.716;9.070;2023-04-15T08:44:11;96020.03;;;11.81;73.50
6514;BME280;3290;47.716;9.070;2023-04-15T08:46:36;96020.66;;;11.51;75.10
6514;BME280;3290;47.716;9.070;2023-04-15T08:49:04;96020.97;;;11.54;76.04
6514;BME280;3290;47.716;9.070;2023-04-15T08:51:30;96020.44;;;11.73;73.92
6514;BME280;3290;47.716;9.070;2023-04-15T08:53:56;96018.91;;;11.98;71.75
6514;BME280;3290;47.716;9.070;2023-04-15T08:56:25;96019.97;;;12.19;70.21
6514;BME280;3290;47.716;9.070;2023-04-15T08:58:53;96012.53;;;12.37;71.86
6514;BME280;3290;47.716;9.070;2023-04-15T09:01:19;96022.75;;;12.34;70.08
6514;BME280;3290;47.716;9.070;2023-04-15T09:03:47;96027.84;;;11.98;72.66
6514;BME280;3290;47.716;9.070;2023-04-15T09:06:13;96019.72;;;11.78;75.65
6514;BME280;3290;47.716;9.070;2023-04-15T09:08:40;96019.06;;;12.35;72.82
6514;BME280;3290;47.716;9.070;2023-04-15T09:11:06;96020.69;;;12.88;71.06
6514;BME280;3290;47.716;9.070;2023-04-15T09:13:32;96016.88;;;13.41;70.78
6514;BME280;3290;47.716;9.070;2023-04-15T09:16:00;96020.31;;;13.83;66.03
6514;BME280;3290;47.716;9.070;2023-04-15T09:18:32;96020.81;;;13.80;65.32
6514;BME280;3290;47.716;9.070;2023-04-15T09:21:13;96028.00;;;13.48;66.60
6514;BME280;3290;47.716;9.070;2023-04-15T09:23:52;96024.75;;;13.00;69.80
6514;BME280;3290;47.716;9.070;2023-04-15T09:26:18;96024.75;;;13.36;69.51
6514;BME280;3290;47.716;9.070;2023-04-15T09:28:43;96030.78;;;12.48;71.68
6514;BME280;3290;47.716;9.070;2023-04-15T09:31:09;96038.44;;;12.76;71.40
6514;BME280;3290;47.716;9.070;2023-04-15T09:33:35;96035.22;;;12.69;70.80
6514;BME280;3290;47.716;9.070;2023-04-15T09:36:18;96033.88;;;13.60;65.07
6514;BME280;3290;47.716;9.070;2023-04-15T09:38:56;96036.06;;;13.01;64.16
6514;BME280;3290;47.716;9.070;2023-04-15T09:41:21;96029.72;;;13.33;63.79
6514;BME280;3290;47.716;9.070;2023-04-15T09:43:47;96031.88;;;13.05;64.71
6514;BME280;3290;47.716;9.070;2023-04-15T09:46:12;96036.94;;;13.11;64.96
6514;BME280;3290;47.716;9.070;2023-04-15T09:48:38;96038.75;;;13.47;62.69
6514;BME280;3290;47.716;9.070;2023-04-15T09:51:03;96028.31;;;13.20;61.19
6514;BME280;3290;47.716;9.070;2023-04-15T09:53:33;96034.34;;;13.16;58.89
6514;BME280;3290;47.716;9.070;2023-04-15T09:55:59;96031.44;;;13.18;57.68
6514;BME280;3290;47.716;9.070;2023-04-15T09:58:28;96028.44;;;13.35;57.01
6514;BME280;3290;47.716;9.070;2023-04-15T10:00:56;96029.97;;;13.72;54.63
6514;BME280;3290;47.716;9.070;2023-04-15T10:03:23;96029.31;;;13.46;55.01
6514;BME280;3290;47.716;9.070;2023-04-15T10:05:51;96034.97;;;13.69;54.39
6514;BME280;3290;47.716;9.070;2023-04-15T10:08:18;96034.31;;;13.52;54.84
6514;BME280;3290;47.716;9.070;2023-04-15T10:10:44;96023.47;;;13.44;55.24
6514;BME280;3290;47.716;9.070;2023-04-15T10:13:13;96034.00;;;13.85;55.35
6514;BME280;3290;47.716;9.070;2023-04-15T10:15:43;96035.22;;;14.18;53.54
6514;BME280;3290;47.716;9.070;2023-04-15T10:18:10;96036.53;;;13.70;54.34
6514;BME280;3290;47.716;9.070;2023-04-15T10:20:35;96048.03;;;14.00;53.89
6514;BME280;3290;47.716;9.070;2023-04-15T10:23:02;96034.72;;;14.21;53.72
6514;BME280;3290;47.716;9.070;2023-04-15T10:25:28;96041.19;;;13.99;53.91
6514;BME280;3290;47.716;9.070;2023-04-15T10:27:54;96037.56;;;13.64;55.98
6514;BME280;3290;47.716;9.070;2023-04-15T10:30:21;96047.22;;;13.99;54.49
6514;BME280;3290;47.716;9.070;2023-04-15T10:32:47;96036.84;;;13.78;55.10
6514;BME280;3290;47.716;9.070;2023-04-15T10:35:14;96042.06;;;14.09;55.49
6514;BME280;3290;47.716;9.070;2023-04-15T10:37:40;96039.00;;;14.47;56.39
6514;BME280;3290;47.716;9.070;2023-04-15T10:42:52;96037.25;;;14.72;54.88
6514;BME280;3290;47.716;9.070;2023-04-15T10:45:17;96035.66;;;14.61;56.63
6514;BME280;3290;47.716;9.070;2023-04-15T10:47:43;96034.38;;;15.08;53.99
6514;BME280;3290;47.716;9.070;2023-04-15T10:50:08;96034.88;;;14.90;53.38
6514;BME280;3290;47.716;9.070;2023-04-15T10:52:39;96032.50;;;15.78;53.63
6514;BME280;3290;47.716;9.070;2023-04-15T10:55:17;96041.75;;;15.01;53.16
6514;BME280;3290;47.716;9.070;2023-04-15T10:57:44;96037.06;;;15.33;52.03
6514;BME280;3290;47.716;9.070;2023-04-15T11:00:14;96048.28;;;14.64;53.34
6514;BME280;3290;47.716;9.070;2023-04-15T11:02:50;96045.44;;;14.81;54.21
6514;BME280;3290;47.716;9.070;2023-04-15T11:05:17;96041.22;;;14.80;54.78
6514;BME280;3290;47.716;9.070;2023-04-15T11:07:47;96041.66;;;14.52;55.46
6514;BME280;3290;47.716;9.070;2023-04-15T11:12:39;96045.81;;;14.28;56.26
6514;BME280;3290;47.716;9.070;2023-04-15T11:17:56;96050.75;;;15.10;55.37
6514;BME280;3290;47.716;9.070;2023-04-15T11:20:21;96052.34;;;15.31;54.96
6514;BME280;3290;47.716;9.070;2023-04-15T11:22:48;96050.00;;;15.24;54.53
6514;BME280;3290;47.716;9.070;2023-04-15T11:25:29;96047.63;;;15.28;54.96
6514;BME280;3290;47.716;9.070;2023-04-15T11:27:55;96049.63;;;16.05;53.05
6514;BME280;3290;47.716;9.070;2023-04-15T11:30:26;96052.13;;;16.44;50.81
6514;BME280;3290;47.716;9.070;2023-04-15T11:32:53;96052.97;;;16.30;51.65
6514;BME280;3290;47.716;9.070;2023-04-15T11:35:19;96052.81;;;16.70;50.36
6514;BME280;3290;47.716;9.070;2023-04-15T11:37:47;96048.34;;;16.60;50.93
6514;BME280;3290;47.716;9.070;2023-04-15T11:40:13;96057.38;;;16.54;50.28
6514;BME280;3290;47.716;9.070;2023-04-15T11:42:40;96063.00;;;16.38;50.46
6514;BME280;3290;47.716;9.070;2023-04-15T11:45:12;96058.16;;;16.55;51.50
6514;BME280;3290;47.716;9.070;2023-04-15T11:47:40;96054.97;;;16.58;50.57
6514;BME280;3290;47.716;9.070;2023-04-15T11:52:59;96063.44;;;15.58;52.00
6514;BME280;3290;47.716;9.070;2023-04-15T11:55:25;96067.09;;;15.91;52.14
6514;BME280;3290;47.716;9.070;2023-04-15T11:58:14;96074.00;;;15.48;53.94
6514;BME280;3290;47.716;9.070;2023-04-15T12:11:30;96085.81;;;15.06;54.62
6514;BME280;3290;47.716;9.070;2023-04-15T12:14:01;96091.91;;;14.96;54.60
6514;BME280;3290;47.716;9.070;2023-04-15T12:16:27;96099.28;;;14.94;55.27
6514;BME280;3290;47.716;9.070;2023-04-15T12:18:55;96103.47;;;14.81;54.63
6514;BME280;3290;47.716;9.070;2023-04-15T12:21:22;96103.00;;;15.03;54.35
6514;BME280;3290;47.716;9.070;2023-04-15T12:23:52;96102.91;;;14.79;54.29
6514;BME280;3290;47.716;9.070;2023-04-15T12:26:26;96103.75;;;14.99;54.73
6514;BME280;3290;47.716;9.070;2023-04-15T12:29:00;96095.94;;;15.38;52.97
6514;BME280;3290;47.716;9.070;2023-04-15T12:31:26;96102.53;;;15.26;53.02
6514;BME280;3290;47.716;9.070;2023-04-15T12:33:54;96099.06;;;15.30;52.93
6514;BME280;3290;47.716;9.070;2023-04-15T12:36:20;96105.69;;;15.53;51.68
6514;BME280;3290;47.716;9.070;2023-04-15T12:38:45;96106.13;;;16.24;50.38
6514;BME280;3290;47.716;9.070;2023-04-15T12:41:10;96112.53;;;15.88;52.42
6514;BME280;3290;47.716;9.070;2023-04-15T12:43:36;96110.38;;;16.20;50.95
6514;BME280;3290;47.716;9.070;2023-04-15T12:46:01;96115.19;;;16.76;50.05
6514;BME280;3290;47.716;9.070;2023-04-15T12:48:27;96126.22;;;16.25;51.35
6514;BME280;3290;47.716;9.070;2023-04-15T12:50:52;96125.72;;;15.83;51.97
6514;BME280;3290;47.716;9.070;2023-04-15T12:53:19;96131.00;;;15.83;52.97
6514;BME280;3290;47.716;9.070;2023-04-15T12:55:44;96137.38;;;15.77;52.84
6514;BME280;3290;47.716;9.070;2023-04-15T12:58:10;96137.38;;;15.77;54.36
6514;BME280;3290;47.716;9.070;2023-04-15T13:00:36;96147.13;;;15.37;52.83
6514;BME280;3290;47.716;9.070;2023-04-15T13:03:01;96144.22;;;15.19;53.75
6514;BME280;3290;47.716;9.070;2023-04-15T13:05:27;96149.50;;;15.34;53.41
6514;BME280;3290;47.716;9.070;2023-04-15T13:07:52;96149.75;;;15.27;53.92
6514;BME280;3290;47.716;9.070;2023-04-15T13:10:18;96150.53;;;15.23;53.49
6514;BME280;3290;47.716;9.070;2023-04-15T13:12:43;96158.91;;;15.05;53.22
6514;BME280;3290;47.716;9.070;2023-04-15T13:15:11;96151.31;;;15.19;52.93
6514;BME280;3290;47.716;9.070;2023-04-15T13:17:37;96163.47;;;15.20;53.69
6514;BME280;3290;47.716;9.070;2023-04-15T13:20:03;96156.38;;;15.35;53.33
6514;BME280;3290;47.716;9.070;2023-04-15T13:22:28;96150.28;;;15.34;51.28
6514;BME280;3290;47.716;9.070;2023-04-15T13:24:54;96168.88;;;14.88;51.31
6514;BME280;3290;47.716;9.070;2023-04-15T13:27:19;96160.22;;;15.08;51.12
6514;BME280;3290;47.716;9.070;2023-04-15T13:29:45;96166.03;;;15.10;50.07
6514;BME280;3290;47.716;9.070;2023-04-15T13:32:11;96161.63;;;15.25;50.20
6514;BME280;3290;47.716;9.070;2023-04-15T13:34:36;96165.88;;;15.65;51.21
6514;BME280;3290;47.716;9.070;2023-04-15T13:37:08;96162.97;;;15.97;51.14
6514;BME280;3290;47.716;9.070;2023-04-15T13:39:33;96165.81;;;16.44;50.88
6514;BME280;3290;47.716;9.070;2023-04-15T13:41:59;96166.41;;;16.07;50.11
6514;BME280;3290;47.716;9.070;2023-04-15T13:44:25;96170.66;;;15.98;50.64